createdAt,value
2017-01-20T00:00:14.363Z,18.54
2017-01-20T00:01:14.677Z,18.55
2017-01-20T00:02:13.408Z,18.55
2017-01-20T00:03:13.864Z,18.20
2017-01-20T00:04:13.593Z,18.02
2017-01-20T00:05:11.416Z,17.97
2017-01-20T00:06:12.982Z,17.95
2017-01-20T00:07:12.371Z,17.94
2017-01-20T00:08:13.300Z,17.93
2017-01-20T00:09:13.923Z,17.92
2017-01-20T00:10:15.438Z,17.91
2017-01-20T00:11:15.639Z,17.92
2017-01-20T00:12:14.713Z,17.91
2017-01-20T00:13:12.059Z,17.95
2017-01-20T00:14:12.307Z,17.91
2017-01-20T00:15:12.283Z,17.92
2017-01-20T00:16:13.139Z,17.91
2017-01-20T00:17:12.884Z,17.95
2017-01-20T00:18:12.347Z,18.46
2017-01-20T00:19:15.387Z,18.52
2017-01-20T00:20:14.108Z,18.55
2017-01-20T00:21:13.657Z,18.56
2017-01-20T00:22:13.429Z,18.57
2017-01-20T00:23:12.791Z,18.58
2017-01-20T00:24:12.595Z,18.58
2017-01-20T00:25:12.107Z,18.59
2017-01-20T00:26:12.125Z,18.60
2017-01-20T00:27:12.717Z,18.60
2017-01-20T00:28:12.182Z,18.27
2017-01-20T00:29:16.935Z,18.04
2017-01-20T00:30:11.977Z,17.99
2017-01-20T00:31:12.887Z,17.97
2017-01-20T00:32:13.149Z,17.96
2017-01-20T00:33:12.327Z,17.94
2017-01-20T00:34:12.630Z,17.97
2017-01-20T00:35:12.789Z,17.94
2017-01-20T00:36:11.716Z,17.93
2017-01-20T00:37:11.745Z,17.93
2017-01-20T00:38:18.474Z,17.93
2017-01-20T00:39:13.893Z,17.97
2017-01-20T00:40:12.158Z,17.92
2017-01-20T00:41:12.915Z,17.93
2017-01-20T00:42:11.935Z,17.93
2017-01-20T00:43:12.612Z,18.00
2017-01-20T00:44:12.457Z,18.47
2017-01-20T00:45:13.220Z,18.53
2017-01-20T00:46:13.189Z,18.02
2017-01-20T00:47:13.192Z,17.97
2017-01-20T00:48:13.008Z,17.96
2017-01-20T00:49:13.193Z,17.94
2017-01-20T00:50:12.462Z,17.94
2017-01-20T00:51:12.349Z,17.96
2017-01-20T00:52:12.977Z,17.98
2017-01-20T00:53:13.175Z,17.94
2017-01-20T00:54:14.032Z,17.93
2017-01-20T00:55:14.100Z,17.93
2017-01-20T00:56:12.633Z,17.93
2017-01-20T00:57:12.611Z,17.93
2017-01-20T00:58:12.058Z,17.96
2017-01-20T00:59:13.007Z,17.93
2017-01-20T01:00:13.481Z,17.93
2017-01-20T01:01:16.169Z,17.93
2017-01-20T01:02:12.219Z,17.93
2017-01-20T01:03:13.435Z,17.93
2017-01-20T01:04:13.219Z,17.93
2017-01-20T01:05:14.045Z,17.94
2017-01-20T01:06:12.532Z,17.94
2017-01-20T01:07:12.774Z,17.95
2017-01-20T01:08:11.861Z,17.93
2017-01-20T01:09:13.636Z,17.94
2017-01-20T01:10:13.087Z,17.95
2017-01-20T01:11:15.643Z,17.93
2017-01-20T01:12:12.580Z,17.94
2017-01-20T01:13:13.839Z,17.94
2017-01-20T01:14:13.983Z,17.93
2017-01-20T01:15:13.782Z,17.93
2017-01-20T01:16:15.759Z,17.94
2017-01-20T01:17:14.256Z,17.95
2017-01-20T01:18:14.588Z,17.94
2017-01-20T01:19:13.563Z,17.94
2017-01-20T01:20:14.202Z,17.94
2017-01-20T01:21:14.677Z,17.95
2017-01-20T01:22:16.359Z,17.95
2017-01-20T01:23:14.333Z,17.95
2017-01-20T01:24:13.983Z,17.95
2017-01-20T01:25:13.705Z,17.95
2017-01-20T01:26:12.165Z,17.95
2017-01-20T01:27:14.526Z,17.95
2017-01-20T01:28:14.152Z,17.97
2017-01-20T01:29:13.372Z,18.00
2017-01-20T01:30:11.374Z,17.95
2017-01-20T01:31:14.268Z,17.95
2017-01-20T01:32:13.546Z,17.97
2017-01-20T01:33:13.043Z,17.95
2017-01-20T01:34:14.593Z,17.95
2017-01-20T01:35:15.568Z,17.95
2017-01-20T01:36:10.748Z,17.94
2017-01-20T01:37:12.689Z,17.95
2017-01-20T01:38:12.926Z,17.95
2017-01-20T01:39:13.727Z,17.95
2017-01-20T01:40:14.242Z,17.97
2017-01-20T01:41:12.705Z,17.95
2017-01-20T01:42:15.721Z,17.95
2017-01-20T01:43:12.522Z,17.95
2017-01-20T01:44:13.596Z,17.99
2017-01-20T01:45:12.024Z,17.96
2017-01-20T01:46:14.532Z,17.96
2017-01-20T01:47:13.536Z,17.96
2017-01-20T01:48:12.926Z,17.96
2017-01-20T01:49:12.827Z,17.96
2017-01-20T01:50:14.174Z,17.97
2017-01-20T01:51:12.297Z,18.04
2017-01-20T01:52:14.646Z,17.98
2017-01-20T01:53:14.267Z,18.01
2017-01-20T01:54:13.311Z,17.97
2017-01-20T01:55:12.247Z,17.97
2017-01-20T01:56:12.421Z,17.96
2017-01-20T01:57:13.678Z,17.97
2017-01-20T01:58:14.666Z,17.97
2017-01-20T01:59:10.845Z,17.97
2017-01-20T02:00:12.566Z,17.97
2017-01-20T02:01:12.132Z,17.97
2017-01-20T02:02:12.733Z,17.97
2017-01-20T02:03:15.009Z,17.96
2017-01-20T02:04:13.585Z,17.97
2017-01-20T02:05:12.116Z,17.97
2017-01-20T02:06:16.225Z,17.98
2017-01-20T02:07:15.463Z,17.98
2017-01-20T02:08:13.468Z,17.97
2017-01-20T02:09:15.440Z,17.98
2017-01-20T02:10:12.534Z,17.98
2017-01-20T02:11:10.899Z,17.97
2017-01-20T02:12:12.676Z,18.02
2017-01-20T02:13:14.282Z,18.02
2017-01-20T02:14:14.006Z,17.99
2017-01-20T02:15:12.059Z,17.98
2017-01-20T02:16:14.442Z,17.98
2017-01-20T02:17:12.799Z,17.98
2017-01-20T02:18:13.605Z,17.98
2017-01-20T02:19:14.151Z,17.97
2017-01-20T02:20:13.305Z,17.98
2017-01-20T02:21:13.391Z,17.98
2017-01-20T02:22:12.449Z,17.99
2017-01-20T02:23:12.843Z,17.98
2017-01-20T02:24:14.268Z,17.98
2017-01-20T02:25:12.447Z,17.98
2017-01-20T02:26:12.994Z,17.99
2017-01-20T02:27:13.375Z,18.00
2017-01-20T02:28:12.820Z,18.54
2017-01-20T02:29:12.510Z,18.58
2017-01-20T02:30:12.304Z,18.06
2017-01-20T02:31:13.528Z,18.03
2017-01-20T02:32:13.080Z,18.02
2017-01-20T02:33:12.479Z,18.01
2017-01-20T02:34:12.558Z,18.07
2017-01-20T02:35:15.249Z,18.00
2017-01-20T02:36:12.425Z,18.00
2017-01-20T02:37:13.772Z,18.00
2017-01-20T02:38:11.920Z,18.00
2017-01-20T02:39:13.072Z,18.00
2017-01-20T02:40:13.405Z,18.00
2017-01-20T02:41:14.237Z,18.00
2017-01-20T02:42:12.262Z,17.99
2017-01-20T02:43:13.338Z,18.00
2017-01-20T02:44:14.020Z,18.00
2017-01-20T02:45:11.961Z,18.00
2017-01-20T02:46:14.435Z,18.01
2017-01-20T02:47:12.174Z,18.00
2017-01-20T02:48:12.871Z,18.05
2017-01-20T02:49:13.754Z,18.00
2017-01-20T02:50:13.344Z,18.02
2017-01-20T02:51:12.289Z,18.00
2017-01-20T02:52:12.261Z,18.00
2017-01-20T02:53:12.900Z,18.00
2017-01-20T02:54:15.234Z,18.01
2017-01-20T02:55:15.563Z,18.01
2017-01-20T02:56:13.860Z,18.00
2017-01-20T02:57:13.150Z,18.00
2017-01-20T02:58:15.314Z,18.00
2017-01-20T02:59:14.994Z,18.00
2017-01-20T03:00:13.075Z,18.00
2017-01-20T03:01:12.231Z,18.01
2017-01-20T03:02:12.636Z,18.06
2017-01-20T03:03:11.671Z,18.00
2017-01-20T03:04:13.263Z,18.01
2017-01-20T03:05:12.102Z,18.55
2017-01-20T03:06:12.141Z,18.24
2017-01-20T03:07:12.195Z,18.08
2017-01-20T03:08:15.676Z,18.04
2017-01-20T03:09:12.412Z,18.03
2017-01-20T03:10:15.467Z,18.02
2017-01-20T03:11:12.261Z,18.01
2017-01-20T03:12:13.103Z,18.02
2017-01-20T03:13:14.772Z,18.02
2017-01-20T03:14:12.887Z,18.01
2017-01-20T03:15:10.970Z,18.00
2017-01-20T03:16:12.481Z,18.26
2017-01-20T03:17:16.245Z,18.06
2017-01-20T03:18:13.107Z,18.12
2017-01-20T03:19:12.447Z,18.57
2017-01-20T03:20:14.062Z,18.62
2017-01-20T03:21:12.834Z,18.64
2017-01-20T03:22:13.487Z,18.65
2017-01-20T03:23:15.013Z,18.66
2017-01-20T03:24:12.669Z,18.32
2017-01-20T03:25:12.333Z,18.13
2017-01-20T03:26:14.093Z,18.07
2017-01-20T03:27:15.752Z,18.04
2017-01-20T03:28:12.360Z,18.03
2017-01-20T03:29:13.159Z,18.09
2017-01-20T03:30:13.374Z,18.03
2017-01-20T03:31:12.919Z,18.06
2017-01-20T03:32:14.236Z,18.02
2017-01-20T03:33:11.870Z,18.02
2017-01-20T03:34:12.018Z,18.02
2017-01-20T03:35:12.241Z,18.02
2017-01-20T03:36:12.865Z,18.05
2017-01-20T03:37:14.259Z,18.01
2017-01-20T03:38:13.168Z,18.02
2017-01-20T03:39:15.014Z,18.04
2017-01-20T03:40:10.797Z,18.56
2017-01-20T03:41:12.850Z,18.62
2017-01-20T03:42:14.359Z,18.64
2017-01-20T03:43:12.307Z,18.12
2017-01-20T03:44:12.934Z,18.06
2017-01-20T03:45:12.349Z,18.05
2017-01-20T03:46:13.327Z,18.03
2017-01-20T03:47:12.433Z,18.02
2017-01-20T03:48:12.533Z,18.03
2017-01-20T03:49:13.828Z,18.02
2017-01-20T03:50:10.973Z,18.02
2017-01-20T03:51:12.817Z,18.25
2017-01-20T03:52:13.885Z,18.08
2017-01-20T03:53:12.256Z,18.04
2017-01-20T03:54:12.231Z,18.03
2017-01-20T03:55:16.524Z,18.03
2017-01-20T03:56:12.267Z,18.04
2017-01-20T03:57:12.363Z,18.02
2017-01-20T03:58:10.475Z,18.02
2017-01-20T03:59:12.163Z,18.03
2017-01-20T04:00:12.295Z,18.02
2017-01-20T04:01:10.695Z,18.02
2017-01-20T04:02:12.416Z,18.02
2017-01-20T04:03:14.135Z,18.04
2017-01-20T04:04:12.573Z,18.10
2017-01-20T04:05:11.648Z,18.57
2017-01-20T04:06:12.121Z,18.62
2017-01-20T04:07:12.887Z,18.65
2017-01-20T04:08:12.629Z,18.36
2017-01-20T04:09:11.704Z,18.14
2017-01-20T04:10:12.898Z,18.09
2017-01-20T04:11:12.916Z,18.06
2017-01-20T04:12:11.080Z,18.04
2017-01-20T04:13:12.427Z,18.59
2017-01-20T04:14:12.411Z,18.64
2017-01-20T04:15:12.742Z,18.29
2017-01-20T04:16:12.130Z,18.13
2017-01-20T04:17:12.530Z,18.08
2017-01-20T04:18:10.523Z,18.05
2017-01-20T04:19:12.845Z,18.05
2017-01-20T04:20:11.900Z,18.04
2017-01-20T04:21:13.569Z,18.04
2017-01-20T04:22:12.650Z,18.03
2017-01-20T04:23:11.822Z,18.04
2017-01-20T04:24:12.621Z,18.03
2017-01-20T04:25:10.491Z,18.03
2017-01-20T04:26:12.127Z,18.58
2017-01-20T04:27:12.570Z,18.64
2017-01-20T04:28:12.494Z,18.66
2017-01-20T04:29:12.925Z,18.68
2017-01-20T04:30:12.500Z,18.69
2017-01-20T04:31:12.535Z,18.68
2017-01-20T04:32:11.949Z,18.70
2017-01-20T04:33:14.160Z,18.69
2017-01-20T04:34:14.716Z,18.16
2017-01-20T04:35:12.486Z,18.11
2017-01-20T04:36:13.490Z,18.16
2017-01-20T04:37:12.235Z,18.06
2017-01-20T04:38:10.270Z,18.05
2017-01-20T04:39:11.657Z,18.04
2017-01-20T04:40:12.695Z,18.11
2017-01-20T04:41:12.793Z,18.07
2017-01-20T04:42:15.363Z,18.03
2017-01-20T04:43:13.277Z,18.57
2017-01-20T04:44:12.199Z,18.64
2017-01-20T04:45:12.659Z,18.66
2017-01-20T04:46:12.656Z,18.68
2017-01-20T04:47:11.651Z,18.69
2017-01-20T04:48:11.594Z,18.70
2017-01-20T04:49:10.673Z,18.70
2017-01-20T04:50:10.870Z,18.71
2017-01-20T04:51:11.865Z,18.33
2017-01-20T04:52:12.345Z,18.16
2017-01-20T04:53:12.541Z,18.10
2017-01-20T04:54:12.020Z,18.08
2017-01-20T04:55:12.004Z,18.07
2017-01-20T04:56:12.589Z,18.09
2017-01-20T04:57:12.705Z,18.05
2017-01-20T04:58:11.851Z,18.05
2017-01-20T04:59:12.215Z,18.05
2017-01-20T05:00:13.029Z,18.10
2017-01-20T05:01:12.464Z,18.11
2017-01-20T05:02:13.095Z,18.04
2017-01-20T05:03:13.533Z,18.04
2017-01-20T05:04:13.055Z,18.04
2017-01-20T05:05:12.953Z,18.04
2017-01-20T05:06:13.183Z,18.04
2017-01-20T05:07:14.356Z,18.04
2017-01-20T05:08:12.586Z,18.09
2017-01-20T05:09:13.419Z,18.04
2017-01-20T05:10:11.827Z,18.05
2017-01-20T05:11:14.615Z,18.04
2017-01-20T05:12:11.774Z,18.04
2017-01-20T05:13:12.970Z,18.06
2017-01-20T05:14:13.007Z,18.04
2017-01-20T05:15:17.001Z,18.04
2017-01-20T05:16:12.035Z,18.04
2017-01-20T05:17:15.388Z,18.04
2017-01-20T05:18:11.290Z,18.04
2017-01-20T05:19:13.254Z,18.59
2017-01-20T05:20:12.000Z,18.65
2017-01-20T05:21:12.560Z,18.13
2017-01-20T05:22:12.500Z,18.09
2017-01-20T05:23:12.291Z,18.07
2017-01-20T05:24:13.016Z,18.09
2017-01-20T05:25:18.353Z,18.05
2017-01-20T05:26:17.947Z,18.09
2017-01-20T05:27:16.864Z,18.27
2017-01-20T05:28:14.012Z,18.11
2017-01-20T05:29:12.027Z,18.07
2017-01-20T05:30:14.537Z,18.06
2017-01-20T05:31:12.733Z,18.05
2017-01-20T05:32:13.645Z,18.04
2017-01-20T05:33:11.890Z,18.05
2017-01-20T05:34:13.992Z,18.05
2017-01-20T05:35:14.531Z,18.05
2017-01-20T05:36:12.430Z,18.05
2017-01-20T05:37:12.364Z,18.05
2017-01-20T05:38:13.032Z,18.05
2017-01-20T05:39:12.139Z,18.05
2017-01-20T05:40:12.516Z,18.11
2017-01-20T05:41:13.540Z,18.04
2017-01-20T05:42:12.629Z,18.05
2017-01-20T05:43:13.032Z,18.07
2017-01-20T05:44:12.771Z,18.11
2017-01-20T05:45:13.575Z,18.04
2017-01-20T05:46:13.034Z,18.05
2017-01-20T05:47:13.596Z,18.05
2017-01-20T05:48:11.544Z,18.05
2017-01-20T05:49:13.010Z,18.11
2017-01-20T05:50:10.978Z,18.04
2017-01-20T05:51:12.743Z,18.60
2017-01-20T05:52:10.965Z,18.66
2017-01-20T05:53:11.977Z,18.14
2017-01-20T05:54:13.594Z,18.12
2017-01-20T05:55:12.003Z,18.62
2017-01-20T05:56:12.924Z,18.67
2017-01-20T05:57:11.506Z,18.37
2017-01-20T05:58:11.401Z,18.16
2017-01-20T05:59:12.101Z,18.11
2017-01-20T06:00:12.526Z,18.08
2017-01-20T06:01:12.954Z,18.07
2017-01-20T06:02:15.221Z,18.06
2017-01-20T06:03:12.462Z,18.07
2017-01-20T06:04:16.150Z,18.06
2017-01-20T06:05:12.977Z,18.07
2017-01-20T06:06:12.184Z,18.05
2017-01-20T06:07:11.949Z,18.05
2017-01-20T06:08:13.237Z,18.60
2017-01-20T06:09:12.019Z,18.66
2017-01-20T06:10:12.336Z,18.69
2017-01-20T06:11:16.712Z,18.71
2017-01-20T06:12:10.548Z,18.71
2017-01-20T06:13:12.285Z,18.17
2017-01-20T06:14:12.272Z,18.12
2017-01-20T06:15:12.367Z,18.08
2017-01-20T06:16:12.753Z,18.12
2017-01-20T06:17:12.892Z,18.07
2017-01-20T06:18:12.776Z,18.10
2017-01-20T06:19:13.037Z,18.05
2017-01-20T06:20:12.033Z,18.06
2017-01-20T06:21:12.050Z,18.05
2017-01-20T06:22:14.041Z,18.04
2017-01-20T06:23:16.399Z,18.05
2017-01-20T06:24:12.310Z,18.05
2017-01-20T06:25:12.405Z,18.05
2017-01-20T06:26:13.382Z,18.05
2017-01-20T06:27:14.430Z,18.05
2017-01-20T06:28:13.933Z,18.05
2017-01-20T06:29:13.821Z,18.05
2017-01-20T06:30:12.484Z,18.04
2017-01-20T06:31:12.632Z,18.05
2017-01-20T06:32:12.341Z,18.05
2017-01-20T06:33:12.739Z,18.10
2017-01-20T06:34:12.471Z,18.06
2017-01-20T06:35:12.815Z,18.09
2017-01-20T06:36:11.910Z,18.05
2017-01-20T06:37:14.552Z,18.05
2017-01-20T06:38:12.189Z,18.04
2017-01-20T06:39:12.818Z,18.06
2017-01-20T06:40:12.559Z,18.04
2017-01-20T06:41:12.226Z,18.05
2017-01-20T06:42:15.941Z,18.04
2017-01-20T06:43:11.927Z,18.05
2017-01-20T06:44:11.895Z,18.05
2017-01-20T06:45:14.978Z,18.05
2017-01-20T06:46:12.135Z,18.11
2017-01-20T06:47:11.044Z,18.05
2017-01-20T06:48:16.226Z,18.60
2017-01-20T06:49:12.655Z,18.65
2017-01-20T06:50:11.686Z,18.68
2017-01-20T06:51:15.074Z,18.32
2017-01-20T06:52:12.863Z,18.18
2017-01-20T06:53:12.780Z,18.12
2017-01-20T06:54:10.425Z,18.08
2017-01-20T06:55:15.288Z,18.07
2017-01-20T06:56:13.863Z,18.07
2017-01-20T06:57:12.645Z,18.06
2017-01-20T06:58:12.363Z,16.04
2017-01-20T06:59:14.612Z,12.55
2017-01-20T07:00:12.511Z,10.33
2017-01-20T07:01:13.064Z,8.61
2017-01-20T07:02:12.130Z,7.51
2017-01-20T07:03:13.658Z,6.71
2017-01-20T07:04:13.667Z,6.30
2017-01-20T07:05:12.073Z,5.88
2017-01-20T07:06:14.242Z,5.46
2017-01-20T07:07:12.306Z,5.73
2017-01-20T07:08:12.303Z,5.86
2017-01-20T07:09:12.286Z,5.81
2017-01-20T07:10:12.293Z,5.74
2017-01-20T07:11:12.704Z,6.19
2017-01-20T07:12:11.815Z,7.83
2017-01-20T07:13:13.698Z,9.24
2017-01-20T07:14:13.820Z,10.36
2017-01-20T07:15:11.838Z,11.31
2017-01-20T07:16:11.674Z,12.02
2017-01-20T07:17:12.884Z,12.63
2017-01-20T07:18:12.026Z,13.03
2017-01-20T07:19:14.270Z,13.49
2017-01-20T07:20:12.253Z,13.79
2017-01-20T07:21:12.775Z,13.81
2017-01-20T07:22:13.247Z,13.80
2017-01-20T07:23:12.825Z,13.67
2017-01-20T07:24:11.863Z,13.83
2017-01-20T07:25:14.124Z,14.04
2017-01-20T07:26:14.486Z,14.31
2017-01-20T07:27:12.154Z,14.51
2017-01-20T07:28:12.800Z,14.71
2017-01-20T07:29:12.973Z,14.89
2017-01-20T07:30:14.396Z,15.03
2017-01-20T07:31:15.121Z,15.17
2017-01-20T07:32:12.894Z,15.28
2017-01-20T07:33:12.529Z,15.35
2017-01-20T07:34:10.496Z,15.42
2017-01-20T07:35:10.107Z,15.50
2017-01-20T07:36:10.610Z,15.58
2017-01-20T07:37:11.524Z,15.65
2017-01-20T07:38:12.881Z,15.77
2017-01-20T07:39:12.621Z,15.79
2017-01-20T07:40:13.118Z,15.86
2017-01-20T07:41:12.016Z,15.88
2017-01-20T07:42:11.871Z,15.92
2017-01-20T07:43:11.883Z,15.95
2017-01-20T07:44:12.512Z,15.98
2017-01-20T07:45:15.047Z,16.02
2017-01-20T07:46:12.895Z,16.06
2017-01-20T07:47:13.920Z,16.10
2017-01-20T07:48:12.834Z,16.15
2017-01-20T07:49:11.883Z,16.13
2017-01-20T07:50:15.244Z,16.15
2017-01-20T07:51:12.380Z,16.18
2017-01-20T07:52:12.454Z,16.21
2017-01-20T07:53:13.254Z,16.23
2017-01-20T07:54:12.389Z,16.24
2017-01-20T07:55:13.304Z,16.27
2017-01-20T07:56:12.370Z,16.29
2017-01-20T07:57:12.833Z,16.33
2017-01-20T07:58:12.485Z,16.31
2017-01-20T07:59:11.096Z,16.32
2017-01-20T08:00:14.133Z,16.88
2017-01-20T08:01:13.837Z,16.95
2017-01-20T08:02:14.569Z,16.99
2017-01-20T08:03:12.166Z,16.48
2017-01-20T08:04:12.952Z,16.45
2017-01-20T08:05:12.704Z,16.44
2017-01-20T08:06:12.411Z,16.44
2017-01-20T08:07:12.460Z,16.43
2017-01-20T08:08:12.372Z,16.44
2017-01-20T08:09:12.383Z,16.45
2017-01-20T08:10:13.020Z,16.46
2017-01-20T08:11:12.885Z,16.50
2017-01-20T08:12:12.968Z,16.49
2017-01-20T08:13:12.923Z,16.48
2017-01-20T08:14:12.568Z,16.48
2017-01-20T08:15:12.496Z,16.49
2017-01-20T08:16:12.625Z,16.50
2017-01-20T08:17:10.415Z,16.51
2017-01-20T08:18:12.886Z,17.06
2017-01-20T08:19:12.670Z,17.13
2017-01-20T08:20:11.700Z,17.16
2017-01-20T08:21:12.298Z,16.65
2017-01-20T08:22:13.193Z,16.61
2017-01-20T08:23:15.443Z,16.63
2017-01-20T08:24:12.433Z,16.59
2017-01-20T08:25:14.255Z,16.59
2017-01-20T08:26:12.585Z,16.60
2017-01-20T08:27:11.439Z,16.60
2017-01-20T08:28:13.301Z,16.61
2017-01-20T08:29:14.636Z,16.61
2017-01-20T08:30:12.754Z,16.62
2017-01-20T08:31:11.728Z,16.62
2017-01-20T08:32:12.689Z,16.62
2017-01-20T08:33:11.736Z,16.63
2017-01-20T08:34:13.072Z,16.63
2017-01-20T08:35:14.509Z,16.63
2017-01-20T08:36:12.469Z,16.65
2017-01-20T08:37:14.340Z,16.65
2017-01-20T08:38:13.094Z,16.65
2017-01-20T08:39:12.163Z,16.66
2017-01-20T08:40:12.748Z,16.66
2017-01-20T08:41:12.247Z,16.73
2017-01-20T08:42:14.060Z,16.67
2017-01-20T08:43:12.700Z,16.68
2017-01-20T08:44:13.819Z,16.67
2017-01-20T08:45:12.517Z,16.67
2017-01-20T08:46:13.249Z,16.69
2017-01-20T08:47:12.350Z,16.68
2017-01-20T08:48:12.315Z,16.68
2017-01-20T08:49:12.758Z,16.73
2017-01-20T08:50:10.601Z,16.68
2017-01-20T08:51:11.978Z,16.73
2017-01-20T08:52:11.874Z,16.69
2017-01-20T08:53:12.628Z,16.69
2017-01-20T08:54:11.728Z,16.69
2017-01-20T08:55:12.495Z,16.69
2017-01-20T08:56:13.625Z,16.69
2017-01-20T08:57:12.565Z,16.75
2017-01-20T08:58:13.902Z,16.69
2017-01-20T08:59:12.326Z,16.69
2017-01-20T09:00:12.334Z,16.69
2017-01-20T09:01:12.885Z,16.69
2017-01-20T09:02:13.707Z,16.69
2017-01-20T09:03:11.920Z,16.69
2017-01-20T09:04:11.906Z,16.69
2017-01-20T09:05:12.319Z,16.73
2017-01-20T09:06:12.422Z,16.68
2017-01-20T09:07:12.908Z,16.69
2017-01-20T09:08:13.696Z,16.69
2017-01-20T09:09:12.584Z,16.69
2017-01-20T09:10:12.269Z,16.68
2017-01-20T09:11:10.821Z,16.68
2017-01-20T09:12:14.580Z,16.68
2017-01-20T09:13:12.163Z,16.69
2017-01-20T09:14:12.894Z,16.69
2017-01-20T09:15:11.988Z,16.69
2017-01-20T09:16:12.623Z,16.74
2017-01-20T09:17:13.283Z,16.68
2017-01-20T09:18:15.231Z,16.69
2017-01-20T09:19:11.815Z,16.69
2017-01-20T09:20:12.414Z,16.68
2017-01-20T09:21:13.325Z,16.69
2017-01-20T09:22:11.507Z,16.69
2017-01-20T09:23:12.812Z,16.75
2017-01-20T09:24:11.838Z,16.69
2017-01-20T09:25:12.417Z,16.71
2017-01-20T09:26:11.347Z,16.69
2017-01-20T09:27:12.446Z,16.69
2017-01-20T09:28:12.318Z,16.69
2017-01-20T09:29:12.230Z,16.70
2017-01-20T09:30:12.181Z,16.70
2017-01-20T09:31:12.099Z,16.71
2017-01-20T09:32:11.861Z,16.71
2017-01-20T09:33:11.874Z,16.71
2017-01-20T09:34:11.675Z,16.71
2017-01-20T09:35:11.670Z,16.71
2017-01-20T09:36:11.649Z,16.71
2017-01-20T09:37:13.881Z,16.72
2017-01-20T09:38:11.968Z,16.73
2017-01-20T09:39:11.908Z,16.73
2017-01-20T09:40:12.695Z,16.73
2017-01-20T09:41:11.749Z,16.73
2017-01-20T09:42:12.597Z,16.73
2017-01-20T09:43:12.385Z,16.74
2017-01-20T09:44:12.356Z,16.74
2017-01-20T09:45:12.926Z,16.74
2017-01-20T09:46:11.979Z,16.74
2017-01-20T09:47:12.134Z,16.75
2017-01-20T09:48:10.855Z,16.75
2017-01-20T09:49:11.917Z,17.29
2017-01-20T09:50:10.495Z,17.35
2017-01-20T09:51:13.250Z,17.38
2017-01-20T09:52:13.005Z,17.39
2017-01-20T09:53:12.794Z,17.07
2017-01-20T09:54:13.162Z,16.88
2017-01-20T09:55:12.336Z,16.83
2017-01-20T09:56:13.118Z,16.80
2017-01-20T09:57:12.908Z,16.79
2017-01-20T09:58:13.355Z,16.85
2017-01-20T09:59:13.183Z,16.79
2017-01-20T10:00:12.286Z,16.79
2017-01-20T10:01:12.228Z,16.78
2017-01-20T10:02:13.436Z,16.78
2017-01-20T10:03:11.435Z,16.79
2017-01-20T10:04:11.935Z,16.86
2017-01-20T10:05:12.760Z,16.78
2017-01-20T10:06:10.406Z,16.79
2017-01-20T10:07:11.559Z,17.34
2017-01-20T10:08:12.564Z,17.39
2017-01-20T10:09:13.371Z,17.42
2017-01-20T10:10:11.795Z,17.43
2017-01-20T10:11:11.746Z,17.44
2017-01-20T10:12:11.596Z,17.45
2017-01-20T10:13:12.374Z,16.92
2017-01-20T10:14:11.078Z,16.87
2017-01-20T10:15:14.562Z,16.85
2017-01-20T10:16:12.201Z,16.83
2017-01-20T10:17:12.768Z,16.83
2017-01-20T10:18:12.328Z,16.83
2017-01-20T10:19:13.148Z,16.83
2017-01-20T10:20:12.090Z,16.82
2017-01-20T10:21:12.029Z,16.83
2017-01-20T10:22:12.730Z,16.85
2017-01-20T10:23:11.716Z,16.82
2017-01-20T10:24:12.399Z,16.82
2017-01-20T10:25:12.837Z,16.91
2017-01-20T10:26:11.698Z,17.36
2017-01-20T10:27:10.458Z,17.41
2017-01-20T10:28:11.648Z,17.44
2017-01-20T10:29:12.343Z,17.46
2017-01-20T10:30:12.804Z,17.46
2017-01-20T10:31:12.341Z,16.94
2017-01-20T10:32:12.782Z,16.89
2017-01-20T10:33:12.532Z,16.88
2017-01-20T10:34:12.438Z,16.85
2017-01-20T10:35:10.883Z,16.85
2017-01-20T10:36:13.099Z,16.86
2017-01-20T10:37:12.062Z,16.84
2017-01-20T10:38:12.143Z,16.84
2017-01-20T10:39:12.199Z,16.85
2017-01-20T10:40:12.701Z,16.90
2017-01-20T10:41:11.640Z,16.85
2017-01-20T10:42:11.090Z,16.84
2017-01-20T10:43:14.971Z,16.85
2017-01-20T10:44:13.037Z,16.84
2017-01-20T10:45:12.581Z,16.84
2017-01-20T10:46:12.302Z,16.84
2017-01-20T10:47:12.789Z,16.85
2017-01-20T10:48:11.769Z,16.84
2017-01-20T10:49:12.370Z,16.84
2017-01-20T10:50:12.314Z,16.85
2017-01-20T10:51:11.236Z,16.83
2017-01-20T10:52:10.921Z,17.37
2017-01-20T10:53:12.241Z,17.43
2017-01-20T10:54:12.769Z,16.93
2017-01-20T10:55:11.831Z,16.89
2017-01-20T10:56:15.274Z,16.87
2017-01-20T10:57:11.885Z,16.85
2017-01-20T10:58:12.737Z,16.86
2017-01-20T10:59:11.759Z,16.86
2017-01-20T11:00:12.208Z,16.91
2017-01-20T11:01:12.850Z,16.86
2017-01-20T11:02:11.896Z,16.85
2017-01-20T11:03:12.448Z,16.87
2017-01-20T11:04:14.129Z,16.87
2017-01-20T11:05:12.521Z,16.87
2017-01-20T11:06:15.119Z,16.87
2017-01-20T11:07:12.813Z,16.87
2017-01-20T11:08:12.366Z,16.93
2017-01-20T11:09:12.295Z,16.87
2017-01-20T11:10:12.874Z,16.87
2017-01-20T11:11:12.322Z,16.88
2017-01-20T11:12:12.393Z,16.88
2017-01-20T11:13:15.702Z,16.88
2017-01-20T11:14:12.262Z,16.88
2017-01-20T11:15:13.291Z,16.88
2017-01-20T11:16:12.877Z,16.88
2017-01-20T11:17:13.159Z,16.89
2017-01-20T11:18:12.483Z,16.89
2017-01-20T11:19:11.547Z,16.89
2017-01-20T11:20:12.093Z,16.93
2017-01-20T11:21:12.069Z,16.89
2017-01-20T11:22:12.620Z,16.89
2017-01-20T11:23:12.259Z,16.90
2017-01-20T11:24:13.295Z,16.91
2017-01-20T11:25:12.882Z,16.91
2017-01-20T11:26:12.494Z,16.92
2017-01-20T11:27:12.491Z,16.91
2017-01-20T11:28:12.373Z,16.92
2017-01-20T11:29:14.071Z,16.91
2017-01-20T11:30:12.383Z,16.91
2017-01-20T11:31:12.272Z,16.92
2017-01-20T11:32:12.303Z,16.92
2017-01-20T11:33:12.704Z,16.95
2017-01-20T11:34:12.757Z,16.93
2017-01-20T11:35:12.348Z,16.92
2017-01-20T11:36:10.909Z,16.92
2017-01-20T11:37:12.186Z,16.91
2017-01-20T11:38:12.291Z,17.47
2017-01-20T11:39:13.746Z,17.52
2017-01-20T11:40:12.345Z,17.54
2017-01-20T11:41:12.202Z,17.56
2017-01-20T11:42:12.662Z,17.57
2017-01-20T11:43:12.560Z,17.57
2017-01-20T11:44:14.602Z,17.58
2017-01-20T11:45:13.632Z,17.58
2017-01-20T11:46:12.504Z,17.59
2017-01-20T11:47:14.123Z,17.58
2017-01-20T11:48:12.679Z,17.06
2017-01-20T11:49:13.166Z,17.00
2017-01-20T11:50:12.275Z,16.98
2017-01-20T11:51:12.113Z,16.96
2017-01-20T11:52:11.984Z,16.95
2017-01-20T11:53:12.662Z,16.94
2017-01-20T11:54:12.428Z,16.95
2017-01-20T11:55:13.131Z,16.94
2017-01-20T11:56:12.260Z,16.94
2017-01-20T11:57:13.118Z,16.95
2017-01-20T11:58:13.229Z,16.94
2017-01-20T11:59:12.322Z,16.94
2017-01-20T12:00:14.591Z,16.94
2017-01-20T12:01:11.888Z,16.94
2017-01-20T12:02:11.808Z,16.94
2017-01-20T12:03:12.144Z,16.98
2017-01-20T12:04:12.127Z,16.94
2017-01-20T12:05:14.385Z,16.94
2017-01-20T12:06:12.238Z,16.94
2017-01-20T12:07:12.802Z,16.99
2017-01-20T12:08:10.721Z,16.93
2017-01-20T12:09:13.590Z,17.11
2017-01-20T12:10:12.461Z,16.99
2017-01-20T12:11:14.569Z,16.96
2017-01-20T12:12:12.416Z,16.95
2017-01-20T12:13:12.335Z,16.95
2017-01-20T12:14:12.623Z,17.02
2017-01-20T12:15:11.682Z,16.94
2017-01-20T12:16:12.150Z,16.93
2017-01-20T12:17:13.922Z,16.94
2017-01-20T12:18:12.859Z,16.94
2017-01-20T12:19:11.733Z,16.94
2017-01-20T12:20:11.692Z,16.95
2017-01-20T12:21:11.578Z,16.94
2017-01-20T12:22:11.426Z,16.94
2017-01-20T12:23:09.766Z,16.93
2017-01-20T12:24:12.211Z,17.00
2017-01-20T12:25:12.809Z,16.94
2017-01-20T12:26:12.128Z,16.99
2017-01-20T12:27:14.085Z,16.95
2017-01-20T12:28:13.571Z,16.94
2017-01-20T12:29:13.550Z,16.94
2017-01-20T12:30:11.644Z,16.94
2017-01-20T12:31:11.723Z,16.94
2017-01-20T12:32:11.695Z,16.94
2017-01-20T12:33:11.625Z,16.95
2017-01-20T12:34:11.422Z,16.95
2017-01-20T12:35:12.300Z,16.95
2017-01-20T12:36:12.293Z,16.95
2017-01-20T12:37:12.342Z,16.94
2017-01-20T12:38:12.791Z,16.95
2017-01-20T12:39:21.024Z,16.95
2017-01-20T12:40:12.014Z,16.95
2017-01-20T12:41:11.977Z,16.95
2017-01-20T12:42:11.765Z,16.95
2017-01-20T12:43:15.503Z,16.95
2017-01-20T12:44:11.979Z,16.95
2017-01-20T12:45:12.376Z,16.99
2017-01-20T12:46:12.350Z,16.95
2017-01-20T12:47:11.318Z,16.95
2017-01-20T12:48:12.313Z,16.95
2017-01-20T12:49:16.007Z,16.95
2017-01-20T12:50:12.122Z,16.95
2017-01-20T12:51:12.753Z,16.97
2017-01-20T12:52:12.317Z,17.04
2017-01-20T12:53:13.054Z,16.96